Time;durP1;ratioP1;P1;durP2;ratioP2;P2;SDS_P1;SDS_P2;PMS_P1;PMS_P2;Temp;Humidity;BMP_temperature;BMP_pressure;BME280_temperature;BME280_humidity;BME280_pressure;Samples;Min_cycle;Max_cycle;Signal;HPM_P1;HPM_P2
2022/08/27 00:00:12;;;;;;;31.03;12.97;;;19.10;99.90;;;;;;4886133;29;20669;-55
2022/08/27 00:02:38;;;;;;;28.67;13.67;;;19.10;99.90;;;;;;4891983;29;20274;-48
2022/08/27 00:05:04;;;;;;;27.23;12.00;;;19.00;99.90;;;;;;4895684;29;20495;-48
2022/08/27 00:07:30;;;;;;;23.53;11.27;;;19.00;99.90;;;;;;4897087;29;20212;-48
2022/08/27 00:09:55;;;;;;;28.37;12.90;;;19.00;99.90;;;;;;4897433;29;20460;-49
2022/08/27 00:12:21;;;;;;;33.67;13.70;;;19.10;99.90;;;;;;4896105;29;20330;-47
2022/08/27 00:14:47;;;;;;;23.00;11.60;;;19.10;99.90;;;;;;4898478;29;20266;-48
2022/08/27 00:17:13;;;;;;;26.20;11.93;;;19.10;99.90;;;;;;4894855;29;20223;-48
2022/08/27 00:19:39;;;;;;;31.13;13.50;;;19.10;99.90;;;;;;4897522;29;20627;-48
2022/08/27 00:22:07;;;;;;;28.83;12.23;;;19.10;99.90;;;;;;4896650;29;20188;-48
2022/08/27 00:24:33;;;;;;;28.60;12.73;;;19.00;99.90;;;;;;4897201;29;20448;-48
2022/08/27 00:26:58;;;;;;;31.43;12.40;;;19.00;99.90;;;;;;4898139;29;20439;-47
2022/08/27 00:29:25;;;;;;;28.70;13.50;;;19.00;99.90;;;;;;4898172;29;20447;-48
2022/08/27 00:31:52;;;;;;;31.00;13.07;;;19.00;99.90;;;;;;4898339;29;20215;-48
2022/08/27 00:34:18;;;;;;;29.20;13.37;;;19.00;99.90;;;;;;4896269;29;20448;-47
2022/08/27 00:36:44;;;;;;;24.87;12.77;;;18.90;99.90;;;;;;4897776;29;20494;-49
2022/08/27 00:39:10;;;;;;;27.13;13.63;;;18.90;99.90;;;;;;4897722;29;20557;-48
2022/08/27 00:41:37;;;;;;;25.40;12.70;;;18.90;99.90;;;;;;4898246;29;21246;-47
2022/08/27 00:44:04;;;;;;;27.03;13.00;;;18.90;99.90;;;;;;4896088;29;20579;-48
2022/08/27 00:46:45;;;;;;;30.53;13.87;;;18.90;99.90;;;;;;4897521;29;21023;-48
2022/08/27 00:49:23;;;;;;;23.27;12.10;;;18.90;99.90;;;;;;4896522;29;20447;-48
2022/08/27 00:52:03;;;;;;;30.37;13.80;;;18.90;99.90;;;;;;4897490;29;20985;-47
2022/08/27 00:54:29;;;;;;;32.27;13.50;;;19.00;99.90;;;;;;4897333;29;20543;-48
2022/08/27 00:56:57;;;;;;;24.10;13.23;;;18.90;99.90;;;;;;4897465;29;20527;-47
2022/08/27 00:59:28;;;;;;;27.43;13.50;;;18.90;99.90;;;;;;4897160;29;20447;-48
2022/08/27 01:04:40;;;;;;;39.13;14.97;;;18.80;99.90;;;;;;4895082;29;20487;-47
2022/08/27 01:07:08;;;;;;;26.17;14.20;;;18.80;99.90;;;;;;4895614;29;20591;-48
2022/08/27 01:09:35;;;;;;;26.17;14.43;;;18.70;99.90;;;;;;4886822;29;20863;-49
2022/08/27 01:12:01;;;;;;;27.87;15.40;;;18.70;99.90;;;;;;4895964;29;20482;-47
2022/08/27 01:14:27;;;;;;;27.30;15.67;;;18.70;99.90;;;;;;4896736;29;20447;-46
2022/08/27 01:16:56;;;;;;;39.97;16.67;;;18.70;99.90;;;;;;4896181;29;20527;-48
2022/08/27 01:19:54;;;;;;;31.83;14.83;;;18.70;99.90;;;;;;4896907;29;20282;-47
2022/08/27 01:22:23;;;;;;;33.43;15.80;;;18.70;99.90;;;;;;4895437;29;20451;-48
2022/08/27 01:24:51;;;;;;;40.03;16.87;;;18.70;99.90;;;;;;4895261;29;20579;-46
2022/08/27 01:27:20;;;;;;;32.40;17.13;;;18.70;99.90;;;;;;4890339;29;20463;-47
2022/08/27 01:29:45;;;;;;;36.83;18.50;;;18.70;99.90;;;;;;4896364;29;20451;-47
2022/08/27 01:32:18;;;;;;;41.17;16.43;;;18.70;99.90;;;;;;4897559;29;20475;-47
2022/08/27 01:34:45;;;;;;;32.90;16.10;;;18.70;99.90;;;;;;4895919;29;20665;-48
2022/08/27 01:37:12;;;;;;;41.50;17.37;;;18.70;99.90;;;;;;4892972;29;20484;-48
2022/08/27 01:39:40;;;;;;;38.03;18.37;;;18.70;99.90;;;;;;4897049;29;20440;-47
2022/08/27 01:42:26;;;;;;;29.90;17.83;;;18.70;99.90;;;;;;4896463;29;20958;-47
2022/08/27 01:44:55;;;;;;;33.70;17.90;;;18.70;99.90;;;;;;4895371;29;20462;-47
2022/08/27 01:47:23;;;;;;;46.83;20.30;;;18.70;99.90;;;;;;4896107;29;20447;-47
2022/08/27 01:49:50;;;;;;;35.00;18.40;;;18.70;99.90;;;;;;4895797;29;20970;-46
2022/08/27 01:52:20;;;;;;;39.10;18.70;;;18.70;99.90;;;;;;4896640;29;20985;-48
2022/08/27 01:54:47;;;;;;;36.47;19.07;;;18.60;99.90;;;;;;4895771;29;20460;-48
2022/08/27 01:57:13;;;;;;;48.83;18.70;;;18.60;99.90;;;;;;4896761;29;20447;-47
2022/08/27 01:59:40;;;;;;;37.10;18.23;;;18.70;99.90;;;;;;4895892;29;20447;-48
2022/08/27 02:02:07;;;;;;;42.33;18.50;;;18.60;99.90;;;;;;4895715;29;20462;-47
2022/08/27 02:04:33;;;;;;;37.37;18.83;;;18.70;99.90;;;;;;4895203;29;21249;-48
2022/08/27 02:06:59;;;;;;;34.90;18.70;;;18.70;99.90;;;;;;4882565;29;20596;-47
2022/08/27 02:09:25;;;;;;;36.87;18.50;;;18.60;99.90;;;;;;4891044;29;20195;-48
2022/08/27 02:11:51;;;;;;;44.37;19.47;;;18.60;99.90;;;;;;4898392;29;20531;-48
2022/08/27 02:14:17;;;;;;;34.13;17.53;;;18.70;99.90;;;;;;4889746;29;20443;-46
2022/08/27 02:16:42;;;;;;;46.57;18.90;;;18.60;99.90;;;;;;4894482;29;20191;-47
2022/08/27 02:19:08;;;;;;;34.37;16.03;;;18.70;99.90;;;;;;4894130;29;20558;-48
2022/08/27 02:21:34;;;;;;;39.93;17.10;;;18.70;99.90;;;;;;4895909;29;20203;-47
2022/08/27 02:23:59;;;;;;;38.90;17.73;;;18.70;99.90;;;;;;4892741;29;20228;-48
2022/08/27 02:26:26;;;;;;;32.33;15.13;;;18.60;99.90;;;;;;4894182;29;20514;-48
2022/08/27 02:28:52;;;;;;;40.50;17.40;;;18.60;99.90;;;;;;4894473;29;20201;-47
2022/08/27 02:31:18;;;;;;;41.17;18.00;;;18.70;99.90;;;;;;4894067;29;20511;-47
2022/08/27 02:33:44;;;;;;;34.73;17.43;;;18.70;99.90;;;;;;4893943;29;20569;-49
2022/08/27 02:36:09;;;;;;;38.87;17.73;;;18.60;99.90;;;;;;4893215;29;20235;-48
2022/08/27 02:38:35;;;;;;;46.60;17.57;;;18.60;99.90;;;;;;4893577;29;20233;-46
2022/08/27 02:41:01;;;;;;;42.10;18.97;;;18.60;99.90;;;;;;4894718;29;20200;-47
2022/08/27 02:43:27;;;;;;;37.33;17.20;;;18.60;99.90;;;;;;4895125;29;20199;-47
2022/08/27 02:45:53;;;;;;;42.23;17.50;;;18.60;99.90;;;;;;4893718;29;20275;-47
2022/08/27 02:48:19;;;;;;;33.53;17.00;;;18.70;99.90;;;;;;4895172;29;20753;-48
2022/08/27 02:50:45;;;;;;;42.40;17.60;;;18.60;99.90;;;;;;4894655;29;20318;-47
2022/08/27 02:53:11;;;;;;;34.30;18.40;;;18.50;99.90;;;;;;4893950;29;20566;-47
2022/08/27 02:55:36;;;;;;;39.30;17.23;;;18.60;99.90;;;;;;4893505;29;20202;-47
2022/08/27 02:58:03;;;;;;;34.83;16.23;;;18.60;99.90;;;;;;4894659;29;20192;-48
2022/08/27 03:00:29;;;;;;;33.87;15.90;;;18.60;99.90;;;;;;4908052;29;20199;-47
2022/08/27 03:02:56;;;;;;;44.53;17.90;;;18.60;99.90;;;;;;4896492;29;20452;-47
2022/08/27 03:05:23;;;;;;;43.13;16.50;;;18.50;99.90;;;;;;4892437;29;20599;-48
2022/08/27 03:07:49;;;;;;;32.10;16.70;;;18.50;99.90;;;;;;4895831;29;20826;-47
2022/08/27 03:10:17;;;;;;;32.93;15.37;;;18.50;99.90;;;;;;4894473;29;20432;-47
2022/08/27 03:12:43;;;;;;;34.07;17.27;;;18.50;99.90;;;;;;4895499;29;20510;-48
2022/08/27 03:15:11;;;;;;;31.87;16.10;;;18.50;99.90;;;;;;4892656;29;20451;-47
2022/08/27 03:20:29;;;;;;;39.10;16.90;;;18.60;99.90;;;;;;4879893;29;21122;-47
2022/08/27 03:22:55;;;;;;;35.00;16.60;;;18.60;99.90;;;;;;4894965;29;20771;-48
2022/08/27 03:25:21;;;;;;;33.40;17.40;;;18.60;99.90;;;;;;4891858;29;20507;-48
2022/08/27 03:27:47;;;;;;;42.33;17.23;;;18.60;99.90;;;;;;4894501;29;20202;-47
2022/08/27 03:30:16;;;;;;;35.03;17.23;;;18.60;99.90;;;;;;4895296;29;20203;-48
2022/08/27 03:32:42;;;;;;;41.77;17.60;;;18.60;99.90;;;;;;4894861;29;20211;-47
2022/08/27 03:35:10;;;;;;;38.53;18.00;;;18.60;99.90;;;;;;4893114;29;20452;-47
2022/08/27 03:37:36;;;;;;;41.03;18.00;;;18.60;99.90;;;;;;4894451;29;20433;-47
2022/08/27 03:40:03;;;;;;;38.60;16.77;;;18.50;99.90;;;;;;4893721;29;20445;-48
2022/08/27 03:42:28;;;;;;;36.80;17.27;;;18.50;99.90;;;;;;4896073;29;20201;-47
2022/08/27 03:44:54;;;;;;;36.40;17.03;;;18.50;99.90;;;;;;4897689;29;20455;-48
2022/08/27 03:47:21;;;;;;;38.87;17.27;;;18.40;99.90;;;;;;4898852;29;20531;-47
2022/08/27 03:49:47;;;;;;;40.33;18.10;;;18.50;99.90;;;;;;4898830;29;20706;-48
2022/08/27 03:52:13;;;;;;;35.10;17.20;;;18.50;99.90;;;;;;4898639;29;20498;-47
2022/08/27 03:54:39;;;;;;;31.30;16.50;;;18.40;99.90;;;;;;4897461;29;20234;-48
2022/08/27 03:57:05;;;;;;;37.13;17.50;;;18.40;99.90;;;;;;4898444;29;20440;-48
2022/08/27 03:59:32;;;;;;;43.20;18.53;;;18.40;99.90;;;;;;4898360;29;20232;-47
2022/08/27 04:01:58;;;;;;;33.80;18.17;;;18.40;99.90;;;;;;4897492;29;20443;-47
2022/08/27 04:04:24;;;;;;;46.03;18.17;;;18.40;99.90;;;;;;4900595;29;20871;-48
2022/08/27 04:06:50;;;;;;;35.13;18.13;;;18.40;99.90;;;;;;4898808;29;20423;-48
2022/08/27 04:09:16;;;;;;;35.23;18.00;;;18.30;99.90;;;;;;4898526;29;20902;-47
2022/08/27 04:11:42;;;;;;;38.10;18.67;;;18.40;99.90;;;;;;4897602;29;20582;-47
2022/08/27 04:14:08;;;;;;;35.50;17.97;;;18.40;99.90;;;;;;4898124;29;20275;-47
2022/08/27 04:16:34;;;;;;;42.70;19.10;;;18.50;99.90;;;;;;4902960;29;20196;-48
2022/08/27 04:19:02;;;;;;;33.23;17.67;;;18.50;99.90;;;;;;4894623;29;20459;-48
2022/08/27 04:21:28;;;;;;;35.70;17.83;;;18.50;99.90;;;;;;4896744;29;20447;-48
2022/08/27 04:23:55;;;;;;;35.07;17.03;;;18.40;99.90;;;;;;4897467;29;20455;-48
2022/08/27 04:26:21;;;;;;;35.77;17.63;;;18.40;99.90;;;;;;4896500;29;20455;-48
2022/08/27 04:28:47;;;;;;;34.33;17.17;;;18.40;99.90;;;;;;4895943;29;20487;-48
2022/08/27 04:31:13;;;;;;;27.73;16.40;;;18.40;99.90;;;;;;4895984;29;20487;-48
2022/08/27 04:33:39;;;;;;;25.47;16.70;;;18.30;99.90;;;;;;4896458;29;20188;-48
2022/08/27 04:36:08;;;;;;;29.77;16.93;;;18.40;99.90;;;;;;4895341;29;20499;-47
2022/08/27 04:38:35;;;;;;;30.93;16.70;;;18.30;99.90;;;;;;4897905;29;20455;-47
2022/08/27 04:41:26;;;;;;;29.97;16.03;;;18.40;99.90;;;;;;4898037;29;20534;-48
2022/08/27 04:43:55;;;;;;;29.87;15.93;;;18.30;99.90;;;;;;4897853;29;20443;-47
2022/08/27 04:46:29;;;;;;;34.10;16.80;;;18.30;99.90;;;;;;4896146;29;20444;-47
2022/08/27 04:49:00;;;;;;;31.40;15.70;;;18.30;99.90;;;;;;4897695;29;20923;-48
2022/08/27 04:51:27;;;;;;;28.10;15.00;;;18.40;99.90;;;;;;4897628;29;20562;-48
2022/08/27 04:53:54;;;;;;;29.00;17.43;;;18.40;99.90;;;;;;4896675;29;20432;-47
2022/08/27 04:56:21;;;;;;;38.40;17.07;;;18.40;99.90;;;;;;4895846;29;20444;-48
2022/08/27 04:58:47;;;;;;;23.93;15.20;;;18.30;99.90;;;;;;4897310;29;20429;-48
2022/08/27 05:01:21;;;;;;;35.43;16.47;;;18.30;99.90;;;;;;4897022;29;20503;-48
2022/08/27 05:03:47;;;;;;;27.10;15.97;;;18.40;99.90;;;;;;4895943;29;20553;-48
2022/08/27 05:06:13;;;;;;;29.53;16.90;;;18.40;99.90;;;;;;4896019;29;20451;-48
2022/08/27 05:08:39;;;;;;;26.33;14.60;;;18.30;99.90;;;;;;4897707;29;20276;-48
2022/08/27 05:11:07;;;;;;;25.07;16.20;;;18.40;99.90;;;;;;4898002;29;20569;-49
2022/08/27 05:13:33;;;;;;;29.77;16.30;;;18.30;99.90;;;;;;4894042;29;20476;-48
2022/08/27 05:16:02;;;;;;;23.30;14.70;;;18.40;99.90;;;;;;4896398;29;20915;-48
2022/08/27 05:18:28;;;;;;;27.57;16.33;;;18.40;99.90;;;;;;4897778;29;20200;-48
2022/08/27 05:20:54;;;;;;;24.30;15.47;;;18.40;99.90;;;;;;4897800;29;20459;-48
2022/08/27 05:23:20;;;;;;;36.43;15.70;;;18.50;99.90;;;;;;4896021;29;20460;-48
2022/08/27 05:25:48;;;;;;;26.87;15.60;;;18.50;99.90;;;;;;4896086;29;20505;-47
2022/08/27 05:28:15;;;;;;;27.53;16.30;;;18.50;99.90;;;;;;4896277;29;20448;-48
2022/08/27 05:30:46;;;;;;;23.23;14.40;;;18.50;99.90;;;;;;4894469;29;20459;-48
2022/08/27 05:33:19;;;;;;;25.37;14.60;;;18.50;99.90;;;;;;4888552;29;20538;-48
2022/08/27 05:35:47;;;;;;;28.67;15.23;;;18.40;99.90;;;;;;4893330;29;20590;-47
2022/08/27 05:38:13;;;;;;;29.37;16.30;;;18.50;99.90;;;;;;4895896;29;20554;-48
2022/08/27 05:40:40;;;;;;;32.53;15.63;;;18.40;99.90;;;;;;4896361;29;20438;-48
2022/08/27 05:43:06;;;;;;;29.03;15.70;;;18.40;99.90;;;;;;4896582;29;20483;-48
2022/08/27 05:45:38;;;;;;;26.20;15.40;;;18.40;99.90;;;;;;4892890;29;20459;-48
2022/08/27 05:48:04;;;;;;;30.73;15.10;;;18.40;99.90;;;;;;4893968;29;20467;-48
2022/08/27 05:50:30;;;;;;;26.33;14.63;;;18.40;99.90;;;;;;4896756;29;20435;-48
2022/08/27 05:52:55;;;;;;;38.00;16.50;;;18.30;99.90;;;;;;4896231;29;20266;-48
2022/08/27 05:55:21;;;;;;;36.07;15.00;;;18.30;99.90;;;;;;4894372;29;20230;-49
2022/08/27 05:57:46;;;;;;;33.17;16.13;;;18.20;99.90;;;;;;4896644;29;20195;-48
2022/08/27 06:02:56;;;;;;;34.03;18.07;;;18.10;99.90;;;;;;4896596;29;20242;-48
2022/08/27 06:05:22;;;;;;;32.50;15.40;;;18.10;99.90;;;;;;4895246;29;20456;-48
2022/08/27 06:07:48;;;;;;;34.50;16.60;;;18.10;99.90;;;;;;4896270;29;20199;-48
2022/08/27 06:10:14;;;;;;;27.70;16.70;;;18.10;99.90;;;;;;4895424;29;21367;-48
2022/08/27 06:12:39;;;;;;;33.57;17.03;;;18.20;99.90;;;;;;4896345;29;20351;-48
2022/08/27 06:15:05;;;;;;;33.00;18.17;;;18.20;99.90;;;;;;4896011;29;20258;-48
2022/08/27 06:17:31;;;;;;;32.47;16.60;;;18.10;99.90;;;;;;4895284;29;20618;-48
2022/08/27 06:19:56;;;;;;;35.47;17.03;;;18.20;99.90;;;;;;4909178;29;20444;-48
2022/08/27 06:22:23;;;;;;;34.70;16.37;;;18.10;99.90;;;;;;4894334;29;20203;-48
2022/08/27 06:24:49;;;;;;;29.83;16.60;;;18.10;99.90;;;;;;4892671;29;20191;-48
2022/08/27 06:27:17;;;;;;;30.43;15.80;;;18.10;99.90;;;;;;4896519;29;20448;-48
2022/08/27 06:29:43;;;;;;;36.00;16.93;;;18.10;99.90;;;;;;4896095;29;20187;-48
2022/08/27 06:32:10;;;;;;;32.40;16.10;;;18.10;99.90;;;;;;4894446;29;20539;-48
2022/08/27 06:34:37;;;;;;;26.50;14.70;;;18.10;99.90;;;;;;4895929;29;20922;-48
2022/08/27 06:37:03;;;;;;;29.43;15.63;;;18.00;97.80;;;;;;4895307;29;20484;-48
2022/08/27 06:39:30;;;;;;;31.23;14.20;;;18.10;99.90;;;;;;4894923;29;20535;-48
2022/08/27 06:41:56;;;;;;;28.30;15.00;;;18.10;84.80;;;;;;4895775;29;20842;-48
2022/08/27 06:44:23;;;;;;;32.20;15.37;;;18.10;71.30;;;;;;4891450;29;20459;-49
2022/08/27 06:46:49;;;;;;;22.90;15.00;;;18.10;85.50;;;;;;4894742;29;20480;-48
2022/08/27 06:49:14;;;;;;;29.73;14.33;;;18.00;82.90;;;;;;4893350;29;20474;-48
2022/08/27 06:51:44;;;;;;;27.87;14.00;;;18.00;71.80;;;;;;4891174;29;20476;-48
2022/08/27 06:54:11;;;;;;;23.87;13.30;;;17.90;52.50;;;;;;4892194;29;20195;-51
2022/08/27 06:56:37;;;;;;;30.97;15.00;;;17.90;77.90;;;;;;4895662;29;20554;-48
2022/08/27 06:59:06;;;;;;;22.47;12.77;;;17.90;90.40;;;;;;4894569;29;20443;-49
2022/08/27 07:01:35;;;;;;;24.63;13.23;;;17.90;99.90;;;;;;4886088;29;20477;-49
2022/08/27 07:04:04;;;;;;;31.37;14.30;;;18.00;95.60;;;;;;4893487;29;20518;-48
2022/08/27 07:06:31;;;;;;;24.10;12.87;;;18.10;73.20;;;;;;4891877;29;20447;-49
2022/08/27 07:08:58;;;;;;;30.83;14.27;;;18.00;50.70;;;;;;4891988;29;20463;-48
2022/08/27 07:11:25;;;;;;;26.30;14.30;;;18.10;42.00;;;;;;4889247;29;20921;-48
2022/08/27 07:13:51;;;;;;;31.00;14.13;;;18.00;25.20;;;;;;4888196;29;20463;-48
2022/08/27 07:16:20;;;;;;;30.40;14.10;;;18.10;48.20;;;;;;4880663;29;20819;-48
2022/08/27 07:18:47;;;;;;;25.00;13.93;;;18.00;19.70;;;;;;4884367;29;20447;-48
2022/08/27 07:21:13;;;;;;;25.57;13.43;;;18.00;41.30;;;;;;4890997;29;20479;-49
2022/08/27 07:23:39;;;;;;;39.57;15.17;;;18.00;49.50;;;;;;4898245;29;20495;-48
2022/08/27 07:26:09;;;;;;;27.97;14.67;;;18.00;60.70;;;;;;4891061;29;20224;-49
2022/08/27 07:28:36;;;;;;;32.37;13.87;;;18.00;56.50;;;;;;4885754;29;20451;-48
2022/08/27 07:31:08;;;;;;;29.60;13.87;;;17.90;64.30;;;;;;4886375;29;20612;-48
2022/08/27 07:33:38;;;;;;;23.20;13.00;;;18.00;89.00;;;;;;4886811;29;20588;-48
2022/08/27 07:36:05;;;;;;;29.00;13.73;;;17.90;63.80;;;;;;4886446;29;20488;-48
2022/08/27 07:38:31;;;;;;;26.30;14.33;;;17.90;73.20;;;;;;4885210;29;20448;-49
2022/08/27 07:40:57;;;;;;;29.13;14.43;;;17.90;68.20;;;;;;4886128;29;20491;-48
2022/08/27 07:46:07;;;;;;;35.30;14.90;;;17.90;34.40;;;;;;4897552;29;20449;-48
2022/08/27 07:48:33;;;;;;;27.30;12.80;;;17.90;36.40;;;;;;4896082;29;21154;-49
2022/08/27 07:51:03;;;;;;;27.53;12.60;;;17.80;48.00;;;;;;4898763;29;20561;-49
2022/08/27 07:53:30;;;;;;;25.50;12.93;;;17.80;53.40;;;;;;4899262;29;20488;-49
2022/08/27 07:56:04;;;;;;;29.93;13.30;;;17.70;38.20;;;;;;4903144;29;20460;-49
2022/08/27 07:58:31;;;;;;;27.57;13.63;;;17.80;29.90;;;;;;4894153;29;20439;-49
2022/08/27 08:00:57;;;;;;;33.50;13.43;;;17.80;26.00;;;;;;4897029;29;20478;-49
2022/08/27 08:03:22;;;;;;;29.63;13.20;;;17.80;13.20;;;;;;4898259;29;20447;-49
2022/08/27 08:05:49;;;;;;;27.50;12.80;;;17.80;1.00;;;;;;4893757;29;20662;-48
2022/08/27 08:08:15;;;;;;;24.27;12.37;;;17.90;1.00;;;;;;4896353;29;20194;-49
2022/08/27 08:10:41;;;;;;;30.13;12.23;;;18.00;1.00;;;;;;4895616;29;20463;-49
2022/08/27 08:13:07;;;;;;;25.80;11.70;;;18.00;1.00;;;;;;4895892;29;20192;-48
2022/08/27 08:15:33;;;;;;;30.43;12.37;;;18.10;1.00;;;;;;4895483;29;20454;-49
2022/08/27 08:17:59;;;;;;;32.50;12.80;;;18.10;1.00;;;;;;4892706;29;20306;-48
2022/08/27 08:20:25;;;;;;;27.47;11.90;;;18.10;1.00;;;;;;4896705;29;20484;-49
2022/08/27 08:22:50;;;;;;;29.03;11.30;;;18.10;1.00;;;;;;4896102;29;20543;-50
2022/08/27 08:25:16;;;;;;;22.70;11.47;;;18.10;1.00;;;;;;4898087;29;20681;-50
2022/08/27 08:27:42;;;;;;;22.43;11.30;;;18.20;1.00;;;;;;4897801;29;20526;-49
2022/08/27 08:30:11;;;;;;;24.10;11.07;;;18.20;1.00;;;;;;4893830;29;20528;-49
2022/08/27 08:32:37;;;;;;;21.60;10.53;;;18.10;1.00;;;;;;4881432;29;20793;-50
2022/08/27 08:35:03;;;;;;;23.80;9.97;;;18.20;1.00;;;;;;4884777;29;20449;-50
2022/08/27 08:37:29;;;;;;;21.33;11.10;;;18.10;99.90;;;;;;4884338;29;20279;-49
2022/08/27 08:39:55;;;;;;;25.30;10.70;;;18.10;1.00;;;;;;4902267;29;20565;-48
2022/08/27 08:42:38;;;;;;;27.17;11.60;;;18.10;1.00;;;;;;4904223;29;20210;-48
2022/08/27 08:45:05;;;;;;;21.07;11.07;;;18.00;1.00;;;;;;4892805;29;20930;-48
2022/08/27 08:47:37;;;;;;;26.27;11.30;;;18.10;1.00;;;;;;4907870;29;20459;-50
2022/08/27 08:50:10;;;;;;;22.37;11.60;;;18.10;1.00;;;;;;4897360;29;20479;-48
2022/08/27 08:52:44;;;;;;;29.73;11.77;;;18.10;1.00;;;;;;4895522;29;20482;-49
2022/08/27 08:55:47;;;;;;;27.13;10.27;;;18.10;1.00;;;;;;4890560;29;20484;-48
2022/08/27 08:58:15;;;;;;;21.17;10.67;;;18.20;1.00;;;;;;4896556;29;20443;-48
2022/08/27 09:00:43;;;;;;;25.50;11.37;;;18.20;1.00;;;;;;4897843;29;20450;-48
2022/08/27 09:03:12;;;;;;;28.40;11.07;;;18.10;99.90;;;;;;4888119;29;20547;-48
2022/08/27 09:05:42;;;;;;;22.33;10.20;;;18.10;99.90;;;;;;4893404;29;20467;-48
2022/08/27 09:08:29;;;;;;;25.20;12.23;;;18.20;1.00;;;;;;4898541;29;20435;-48
2022/08/27 09:10:58;;;;;;;21.17;10.00;;;18.20;99.90;;;;;;4909124;29;20453;-48
2022/08/27 09:13:39;;;;;;;18.77;9.40;;;18.20;99.90;;;;;;4896888;29;20440;-48
2022/08/27 09:16:05;;;;;;;21.87;9.83;;;18.30;99.90;;;;;;4898473;29;20456;-48
2022/08/27 09:18:34;;;;;;;18.20;10.03;;;18.30;99.90;;;;;;4908600;29;20930;-48
2022/08/27 09:21:09;;;;;;;27.30;10.13;;;18.30;99.90;;;;;;4896292;29;20452;-49
2022/08/27 09:23:56;;;;;;;24.00;10.43;;;18.30;99.90;;;;;;4897022;29;20419;-49
2022/08/27 09:26:25;;;;;;;14.93;9.43;;;18.30;99.90;;;;;;4896024;29;20455;-48
2022/08/27 09:29:19;;;;;;;22.60;10.47;;;18.30;99.90;;;;;;4904128;29;20546;-48
2022/08/27 09:32:07;;;;;;;17.37;8.90;;;18.40;99.90;;;;;;4897530;29;20527;-48
2022/08/27 09:34:40;;;;;;;21.57;9.93;;;18.50;99.90;;;;;;4896875;29;20495;-49
2022/08/27 09:37:19;;;;;;;16.73;8.77;;;18.50;99.90;;;;;;4896140;29;20487;-49
2022/08/27 09:39:50;;;;;;;17.10;9.20;;;18.50;25.30;;;;;;4894430;29;20440;-49
2022/08/27 09:42:46;;;;;;;26.33;9.30;;;18.60;1.00;;;;;;4896502;29;20432;-49
2022/08/27 09:45:18;;;;;;;22.37;10.20;;;18.60;1.00;;;;;;4888172;29;20459;-49
2022/08/27 09:48:01;;;;;;;21.70;10.50;;;18.60;1.00;;;;;;4899693;29;20488;-49
2022/08/27 09:50:34;;;;;;;20.37;9.37;;;18.70;1.00;;;;;;4899937;29;20451;-49
2022/08/27 09:52:59;;;;;;;18.17;9.70;;;18.60;1.00;;;;;;4903213;29;20472;-49
2022/08/27 09:55:42;;;;;;;22.40;9.60;;;18.70;1.00;;;;;;4896495;29;20935;-49
2022/08/27 09:58:20;;;;;;;22.47;9.47;;;18.80;1.00;;;;;;4894500;29;20278;-49
2022/08/27 10:00:48;;;;;;;21.30;9.67;;;18.80;1.00;;;;;;4897104;29;20443;-48
2022/08/27 10:03:14;;;;;;;23.83;9.17;;;18.90;1.00;;;;;;4897535;29;20521;-49
2022/08/27 10:05:50;;;;;;;17.10;10.07;;;18.90;1.00;;;;;;4895305;29;20445;-48
2022/08/27 10:08:37;;;;;;;16.83;9.20;;;19.00;1.00;;;;;;4910837;29;20490;-49
2022/08/27 10:11:06;;;;;;;19.03;9.07;;;19.10;99.90;;;;;;4904100;29;20479;-49
2022/08/27 10:13:48;;;;;;;19.10;8.70;;;19.10;99.90;;;;;;4894608;29;20530;-48
2022/08/27 10:16:34;;;;;;;21.63;9.00;;;19.10;99.90;;;;;;4892988;29;20459;-49
2022/08/27 10:19:36;;;;;;;15.00;8.53;;;19.10;99.90;;;;;;4889051;29;20894;-49
2022/08/27 10:22:15;;;;;;;18.60;8.60;;;19.20;99.90;;;;;;4894447;29;20454;-49
2022/08/27 10:25:06;;;;;;;22.83;7.90;;;19.20;1.00;;;;;;4896288;29;20417;-48
2022/08/27 10:28:07;;;;;;;18.60;8.20;;;19.30;1.00;;;;;;4890650;29;20466;-48
2022/08/27 10:30:58;;;;;;;15.57;7.80;;;19.40;1.00;;;;;;4891993;29;20460;-50
2022/08/27 10:33:45;;;;;;;22.73;8.27;;;19.50;1.00;;;;;;4895550;29;20535;-51
2022/08/27 10:36:29;;;;;;;20.03;8.20;;;19.60;1.00;;;;;;4890606;29;20484;-50
2022/08/27 10:39:23;;;;;;;17.77;8.10;;;19.70;1.00;;;;;;4895574;29;20432;-50
2022/08/27 10:41:58;;;;;;;20.33;8.93;;;19.60;14.80;;;;;;4877260;29;20804;-49
2022/08/27 10:44:53;;;;;;;19.10;8.30;;;19.60;99.90;;;;;;4877125;29;20890;-49
2022/08/27 10:47:26;;;;;;;18.57;8.00;;;19.70;99.90;;;;;;4885733;29;20878;-50
2022/08/27 10:50:00;;;;;;;19.30;7.43;;;19.70;99.90;;;;;;4896183;29;20997;-50
2022/08/27 10:52:48;;;;;;;17.23;7.73;;;19.80;42.00;;;;;;4892892;29;20489;-50
2022/08/27 10:55:26;;;;;;;17.40;7.27;;;19.90;99.90;;;;;;4895983;29;20885;-50
2022/08/27 10:58:05;;;;;;;18.63;7.70;;;20.00;99.90;;;;;;4894396;29;21098;-50
2022/08/27 11:00:46;;;;;;;22.23;7.30;;;20.10;1.00;;;;;;4894477;29;20420;-51
2022/08/27 11:03:28;;;;;;;19.33;6.47;;;20.00;1.00;;;;;;4903815;29;20478;-50
2022/08/27 11:05:55;;;;;;;16.27;7.30;;;20.10;83.00;;;;;;4895529;29;20529;-51
2022/08/27 11:08:32;;;;;;;19.57;7.17;;;20.00;99.80;;;;;;4898392;29;20443;-50
2022/08/27 11:11:04;;;;;;;15.30;5.47;;;20.00;99.90;;;;;;4877986;29;20393;-50
2022/08/27 11:13:50;;;;;;;8.80;4.90;;;20.00;99.90;;;;;;4893065;29;20937;-50
2022/08/27 11:16:24;;;;;;;24.40;5.93;;;20.00;99.90;;;;;;4885449;29;20443;-51
2022/08/27 11:18:56;;;;;;;15.90;6.40;;;20.10;99.90;;;;;;4892886;29;20510;-50
2022/08/27 11:21:44;;;;;;;12.83;5.60;;;20.00;1.00;;;;;;4886821;29;20454;-50
2022/08/27 11:24:28;;;;;;;12.47;5.93;;;20.00;1.00;;;;;;4889336;29;20420;-51
2022/08/27 11:26:59;;;;;;;11.90;4.40;;;19.90;1.00;;;;;;4893358;29;20447;-50
2022/08/27 11:29:58;;;;;;;13.43;4.90;;;19.80;46.20;;;;;;4895808;29;20428;-50
2022/08/27 11:32:53;;;;;;;11.67;4.30;;;19.90;1.00;;;;;;4887402;29;20555;-50
2022/08/27 11:35:29;;;;;;;13.67;4.33;;;19.90;1.00;;;;;;4894045;29;20487;-50
2022/08/27 11:37:57;;;;;;;7.83;4.03;;;20.00;1.00;;;;;;4892755;29;20436;-50
2022/08/27 11:40:40;;;;;;;16.63;3.87;;;20.10;1.00;;;;;;4887804;29;20428;-50
2022/08/27 11:43:23;;;;;;;10.70;3.43;;;20.30;1.00;;;;;;4892023;29;20503;-50
2022/08/27 11:46:01;;;;;;;12.37;3.97;;;20.50;1.00;;;;;;4895406;29;20523;-54
2022/08/27 11:48:30;;;;;;;11.80;3.23;;;20.60;1.00;;;;;;4895235;29;20513;-50
2022/08/27 11:51:04;;;;;;;7.53;3.60;;;20.70;1.00;;;;;;4894354;29;20440;-53
2022/08/27 11:53:35;;;;;;;9.27;3.30;;;20.80;1.00;;;;;;4879803;29;20450;-50
2022/08/27 11:56:14;;;;;;;11.87;3.43;;;20.90;1.00;;;;;;4895397;29;20420;-50
2022/08/27 11:58:41;;;;;;;8.43;2.73;;;21.00;1.00;;;;;;4889527;29;20817;-50
2022/08/27 12:01:38;;;;;;;12.50;3.47;;;20.90;1.00;;;;;;4889044;29;20447;-50
2022/08/27 12:04:18;;;;;;;13.57;3.27;;;21.00;1.00;;;;;;4874545;29;20575;-51
2022/08/27 12:06:49;;;;;;;10.43;3.23;;;21.20;1.00;;;;;;4890516;29;20484;-51
2022/08/27 12:09:22;;;;;;;13.00;3.43;;;21.40;1.00;;;;;;4896979;29;20463;-50
2022/08/27 12:11:57;;;;;;;9.53;3.27;;;21.70;1.00;;;;;;4909478;29;20482;-51
2022/08/27 12:14:41;;;;;;;7.40;2.87;;;22.00;1.00;;;;;;4896894;29;20486;-50
2022/08/27 12:17:13;;;;;;;9.50;2.83;;;22.10;1.00;;;;;;4897687;29;20420;-54
2022/08/27 12:19:44;;;;;;;6.90;2.60;;;22.30;1.00;;;;;;4896318;29;20563;-50
2022/08/27 12:22:31;;;;;;;8.60;2.63;;;22.20;1.00;;;;;;4881365;29;20440;-53
2022/08/27 12:24:58;;;;;;;6.97;3.10;;;22.30;1.00;;;;;;4881887;29;20477;-49
2022/08/27 12:27:30;;;;;;;4.37;2.40;;;22.40;99.90;;;;;;4879549;29;21183;-49
2022/08/27 12:30:00;;;;;;;11.20;3.17;;;22.50;99.90;;;;;;4879507;29;20409;-50
2022/08/27 12:32:36;;;;;;;14.00;3.17;;;22.70;99.90;;;;;;4896422;29;20463;-50
2022/08/27 12:35:18;;;;;;;9.50;3.10;;;23.00;99.90;;;;;;4897478;29;20483;-50
2022/08/27 12:37:53;;;;;;;9.37;3.30;;;23.90;99.90;;;;;;4897907;29;20436;-51
2022/08/27 12:40:28;;;;;;;15.53;3.20;;;25.10;99.90;;;;;;4897746;29;20446;-51
2022/08/27 12:43:27;;;;;;;5.80;2.30;;;26.00;99.90;;;;;;4894675;29;20534;-51
2022/08/27 12:46:05;;;;;;;7.97;2.70;;;26.70;99.90;;;;;;4864972;29;20455;-51
2022/08/27 12:48:43;;;;;;;11.47;2.90;;;27.20;99.90;;;;;;4898079;29;20419;-51
2022/08/27 12:51:13;;;;;;;10.50;3.00;;;27.60;99.90;;;;;;4897867;29;20534;-51
2022/08/27 12:54:02;;;;;;;6.00;2.80;;;27.90;99.90;;;;;;4897471;29;20483;-51
2022/08/27 12:56:45;;;;;;;14.00;3.00;;;28.20;99.90;;;;;;4895820;29;20455;-51
2022/08/27 12:59:42;;;;;;;13.03;3.20;;;28.50;99.90;;;;;;4897395;29;20515;-51
2022/08/27 13:02:26;;;;;;;9.40;2.90;;;28.40;99.90;;;;;;4893198;29;20439;-51